createdAt,value
2017-11-16T00:01:57.393Z,52.50
2017-11-16T00:04:23.674Z,47.17
2017-11-16T00:06:50.699Z,56.83
2017-11-16T00:09:16.980Z,53.20
2017-11-16T00:11:43.337Z,50.93
2017-11-16T00:14:09.641Z,54.70
2017-11-16T00:16:35.924Z,49.80
2017-11-16T00:19:02.249Z,49.43
2017-11-16T00:21:28.612Z,52.53
2017-11-16T00:23:55.625Z,54.50
2017-11-16T00:26:21.895Z,55.43
2017-11-16T00:28:48.968Z,50.30
2017-11-16T00:31:15.242Z,60.37
2017-11-16T00:33:41.515Z,60.00
2017-11-16T00:36:07.814Z,53.60
2017-11-16T00:38:34.155Z,56.90
2017-11-16T00:41:01.192Z,53.33
2017-11-16T00:43:27.469Z,44.03
2017-11-16T00:45:53.767Z,45.23
2017-11-16T00:48:20.854Z,60.27
2017-11-16T00:50:47.181Z,57.80
2017-11-16T00:53:13.423Z,47.03
2017-11-16T00:55:39.680Z,54.73
2017-11-16T00:58:05.929Z,51.07
2017-11-16T01:00:32.966Z,48.77
2017-11-16T01:02:59.301Z,52.57
2017-11-16T01:05:25.601Z,49.03
2017-11-16T01:07:51.874Z,52.10
2017-11-16T01:10:18.320Z,51.70
2017-11-16T01:12:44.625Z,55.23
2017-11-16T01:15:11.660Z,59.97
2017-11-16T01:17:38.002Z,58.40
2017-11-16T01:20:04.300Z,56.57
2017-11-16T01:22:37.786Z,50.67
2017-11-16T01:25:04.054Z,53.87
2017-11-16T01:27:30.367Z,54.60
2017-11-16T01:29:56.625Z,44.53
2017-11-16T01:32:23.821Z,49.60
2017-11-16T01:34:50.182Z,54.10
2017-11-16T01:37:16.505Z,48.90
2017-11-16T01:39:42.785Z,47.37
2017-11-16T01:42:09.805Z,58.67
2017-11-16T01:44:36.071Z,51.70
2017-11-16T01:47:02.373Z,48.17
2017-11-16T01:49:28.676Z,55.63
2017-11-16T01:51:54.934Z,61.13
2017-11-16T01:54:21.414Z,55.57
2017-11-16T01:56:47.694Z,50.00
2017-11-16T01:59:14.014Z,53.03
2017-11-16T02:01:40.301Z,49.97
2017-11-16T02:04:06.606Z,51.23
2017-11-16T02:06:33.610Z,47.87
2017-11-16T02:08:59.875Z,53.73
2017-11-16T02:11:26.891Z,53.27
2017-11-16T02:13:53.220Z,53.50
2017-11-16T02:16:19.530Z,54.63
2017-11-16T02:18:45.794Z,46.83
2017-11-16T02:21:12.085Z,48.30
2017-11-16T02:23:38.394Z,52.00
2017-11-16T02:26:04.742Z,52.60
2017-11-16T02:28:31.011Z,55.30
2017-11-16T02:30:58.046Z,52.90
2017-11-16T02:33:24.364Z,56.07
2017-11-16T02:35:50.627Z,50.50
2017-11-16T02:38:17.676Z,61.03
2017-11-16T02:40:44.011Z,57.33
2017-11-16T02:43:10.361Z,51.50
2017-11-16T02:45:37.383Z,52.27
2017-11-16T02:48:03.668Z,51.27
2017-11-16T02:50:29.965Z,59.00
2017-11-16T02:52:57.068Z,53.67
2017-11-16T02:55:23.327Z,59.73
2017-11-16T02:57:49.562Z,57.50
2017-11-16T03:00:15.861Z,50.00
2017-11-16T03:02:42.129Z,53.20
2017-11-16T03:05:09.161Z,52.93
2017-11-16T03:07:35.381Z,59.00
2017-11-16T03:10:01.680Z,65.37
2017-11-16T03:12:28.018Z,62.33
2017-11-16T03:14:54.307Z,62.30
2017-11-16T03:17:21.399Z,69.53
2017-11-16T03:19:47.736Z,62.80
2017-11-16T03:22:14.075Z,60.70
2017-11-16T03:24:40.324Z,65.60
2017-11-16T03:27:06.635Z,67.27
2017-11-16T03:29:32.924Z,63.20
2017-11-16T03:32:00.020Z,56.70
2017-11-16T03:34:26.329Z,67.43
2017-11-16T03:36:52.620Z,64.90
2017-11-16T03:39:18.941Z,62.53
2017-11-16T03:41:45.219Z,61.87
2017-11-16T03:44:11.871Z,57.37
2017-11-16T03:46:38.128Z,64.10
2017-11-16T03:49:04.414Z,58.00
2017-11-16T03:51:30.741Z,59.13
2017-11-16T03:53:57.013Z,53.47
2017-11-16T03:56:23.371Z,58.30
2017-11-16T03:58:49.638Z,52.70
2017-11-16T04:01:16.736Z,60.67
2017-11-16T04:03:43.041Z,62.53
2017-11-16T04:06:10.116Z,76.30
2017-11-16T04:08:37.229Z,60.60
2017-11-16T04:11:03.552Z,57.30
2017-11-16T04:13:29.914Z,70.70
2017-11-16T04:15:56.155Z,50.73
2017-11-16T04:18:22.477Z,55.50
2017-11-16T04:20:48.789Z,64.27
2017-11-16T04:23:15.102Z,61.00
2017-11-16T04:25:41.428Z,75.10
2017-11-16T04:28:07.726Z,71.53
2017-11-16T04:30:34.110Z,70.43
2017-11-16T04:33:00.436Z,64.73
2017-11-16T04:35:27.578Z,68.63
2017-11-16T04:37:53.839Z,64.73
2017-11-16T04:40:20.241Z,58.17
2017-11-16T04:42:46.496Z,59.13
2017-11-16T04:45:12.848Z,62.03
2017-11-16T04:47:39.874Z,65.27
2017-11-16T04:50:06.275Z,59.20
2017-11-16T04:52:32.589Z,59.37
2017-11-16T04:54:58.928Z,66.43
2017-11-16T04:57:25.203Z,65.53
2017-11-16T04:59:51.548Z,67.70
2017-11-16T05:02:17.982Z,73.20
2017-11-16T05:04:44.329Z,72.03
2017-11-16T05:07:11.336Z,65.80
2017-11-16T05:09:37.654Z,63.53
2017-11-16T05:12:03.910Z,66.70
2017-11-16T05:14:30.189Z,75.93
2017-11-16T05:16:56.529Z,80.40
2017-11-16T05:19:22.854Z,85.83
2017-11-16T05:21:49.133Z,70.63
2017-11-16T05:24:16.379Z,70.47
2017-11-16T05:26:42.712Z,72.63
2017-11-16T05:29:09.036Z,64.87
2017-11-16T05:31:35.412Z,73.37
2017-11-16T05:34:02.510Z,81.80
2017-11-16T05:36:28.848Z,73.67
2017-11-16T05:38:55.184Z,70.83
2017-11-16T05:41:21.495Z,73.47
2017-11-16T05:43:47.817Z,69.70
2017-11-16T05:46:14.104Z,69.77
2017-11-16T05:48:40.423Z,70.03
2017-11-16T05:51:06.813Z,68.00
2017-11-16T05:53:33.179Z,64.60
2017-11-16T05:55:59.561Z,65.77
2017-11-16T05:58:25.873Z,64.87
2017-11-16T06:00:52.191Z,65.10
2017-11-16T06:03:19.263Z,64.63
2017-11-16T06:05:45.758Z,71.90
2017-11-16T06:08:12.058Z,65.80
2017-11-16T06:10:38.386Z,68.17
2017-11-16T06:13:04.705Z,72.70
2017-11-16T06:15:31.231Z,74.40
2017-11-16T06:18:04.545Z,73.03
2017-11-16T06:20:30.867Z,69.70
2017-11-16T06:22:57.207Z,75.00
2017-11-16T06:25:23.535Z,79.70
2017-11-16T06:27:49.818Z,73.17
2017-11-16T06:30:16.120Z,76.03
2017-11-16T06:32:42.512Z,80.50
2017-11-16T06:35:08.790Z,74.63
2017-11-16T06:37:35.210Z,70.10
2017-11-16T06:40:01.597Z,66.47
2017-11-16T06:42:28.609Z,70.97
2017-11-16T06:44:54.946Z,73.80
2017-11-16T06:47:21.264Z,69.30
2017-11-16T06:49:47.611Z,71.90
2017-11-16T06:52:13.974Z,74.20
2017-11-16T06:54:40.284Z,62.50
2017-11-16T06:57:06.683Z,70.00
2017-11-16T06:59:32.997Z,69.03
2017-11-16T07:01:59.322Z,68.13
2017-11-16T07:04:25.653Z,67.10
2017-11-16T07:06:52.056Z,59.90
2017-11-16T07:09:18.423Z,64.17
2017-11-16T07:11:44.779Z,59.57
2017-11-16T07:14:11.114Z,60.63
2017-11-16T07:16:37.416Z,49.90
2017-11-16T07:19:03.689Z,63.50
2017-11-16T07:21:30.009Z,51.80
2017-11-16T07:23:56.341Z,57.57
2017-11-16T07:26:22.638Z,53.83
2017-11-16T07:28:48.989Z,59.97
2017-11-16T07:31:15.309Z,51.67
2017-11-16T07:33:41.634Z,51.93
2017-11-16T07:36:07.894Z,58.03
2017-11-16T07:38:34.292Z,52.00
2017-11-16T07:41:00.670Z,49.00
2017-11-16T07:43:27.828Z,43.83
2017-11-16T07:45:54.935Z,49.50
2017-11-16T07:48:21.360Z,46.50
2017-11-16T07:50:47.721Z,43.43
2017-11-16T07:53:14.088Z,45.13
2017-11-16T07:55:41.206Z,40.77
2017-11-16T07:58:07.528Z,51.83
2017-11-16T08:00:33.860Z,43.07
2017-11-16T08:03:00.205Z,42.60
2017-11-16T08:05:26.543Z,51.93
2017-11-16T08:07:52.867Z,48.87
2017-11-16T08:10:19.212Z,44.67
2017-11-16T08:12:46.268Z,41.60
2017-11-16T08:15:13.339Z,38.50
2017-11-16T08:17:39.754Z,38.97
2017-11-16T08:20:06.088Z,39.50
2017-11-16T08:22:33.172Z,52.57
2017-11-16T08:24:59.471Z,37.70
2017-11-16T08:27:26.556Z,40.20
2017-11-16T08:29:52.885Z,35.53
2017-11-16T08:32:19.179Z,30.50
2017-11-16T08:34:46.270Z,31.23
2017-11-16T08:37:12.581Z,35.30
2017-11-16T08:39:38.908Z,41.33
2017-11-16T08:42:05.221Z,29.67
2017-11-16T08:44:32.268Z,33.67
2017-11-16T08:46:59.289Z,37.13
2017-11-16T08:49:25.611Z,38.90
2017-11-16T08:51:51.969Z,41.80
2017-11-16T08:54:19.020Z,44.27
2017-11-16T08:56:45.335Z,38.50
2017-11-16T08:59:11.647Z,38.83
2017-11-16T09:01:38.078Z,40.90
2017-11-16T09:04:04.430Z,39.80
2017-11-16T09:06:30.786Z,41.13
2017-11-16T09:08:57.851Z,42.60
2017-11-16T09:11:24.188Z,47.73
2017-11-16T09:13:50.495Z,42.13
2017-11-16T09:16:17.649Z,49.30
2017-11-16T09:18:44.713Z,40.30
2017-11-16T09:21:11.110Z,38.67
2017-11-16T09:23:45.114Z,39.43
2017-11-16T09:26:11.444Z,41.23
2017-11-16T09:28:37.802Z,40.80
2017-11-16T09:31:04.147Z,47.70
2017-11-16T09:33:30.530Z,46.93
2017-11-16T09:35:56.900Z,49.00
2017-11-16T09:38:23.933Z,47.00
2017-11-16T09:40:51.005Z,40.30
2017-11-16T09:43:17.294Z,40.50
2017-11-16T09:45:43.588Z,39.60
2017-11-16T09:48:09.889Z,44.00
2017-11-16T09:50:36.972Z,45.13
2017-11-16T09:53:03.336Z,42.07
2017-11-16T09:55:29.679Z,42.03
2017-11-16T09:57:56.015Z,44.23
2017-11-16T10:00:22.337Z,33.43
2017-11-16T10:02:48.627Z,39.90
2017-11-16T10:05:14.891Z,34.03
2017-11-16T10:07:42.050Z,36.60
2017-11-16T10:10:08.397Z,36.90
2017-11-16T10:12:35.432Z,33.20
2017-11-16T10:15:01.772Z,33.33
2017-11-16T10:17:28.870Z,33.00
2017-11-16T10:19:55.233Z,37.40
2017-11-16T10:22:21.524Z,35.20
2017-11-16T10:24:47.790Z,31.67
2017-11-16T10:27:14.078Z,30.80
2017-11-16T10:29:40.474Z,32.83
2017-11-16T10:32:07.539Z,31.70
2017-11-16T10:34:34.576Z,34.83
2017-11-16T10:37:01.639Z,34.00
2017-11-16T10:39:27.939Z,28.87
2017-11-16T10:41:54.258Z,26.90
2017-11-16T10:44:20.582Z,28.20
2017-11-16T10:46:46.917Z,27.73
2017-11-16T10:49:13.262Z,28.57
2017-11-16T10:51:40.287Z,36.03
2017-11-16T10:54:06.561Z,32.57
2017-11-16T10:56:33.609Z,29.90
2017-11-16T10:59:00.773Z,31.70
2017-11-16T11:01:27.072Z,32.90
2017-11-16T11:03:53.368Z,33.13
2017-11-16T11:06:19.662Z,30.03
2017-11-16T11:08:45.950Z,31.20
2017-11-16T11:11:12.213Z,34.37
2017-11-16T11:13:38.582Z,32.33
2017-11-16T11:16:04.899Z,33.70
2017-11-16T11:18:31.230Z,30.80
2017-11-16T11:20:57.530Z,39.10
2017-11-16T11:23:24.914Z,35.93
2017-11-16T11:25:51.193Z,31.87
2017-11-16T11:28:17.534Z,31.07
2017-11-16T11:30:43.852Z,30.27
2017-11-16T11:33:10.139Z,37.00
2017-11-16T11:35:36.429Z,39.00
2017-11-16T11:38:03.481Z,32.40
2017-11-16T11:40:30.589Z,36.10
2017-11-16T11:42:56.887Z,31.53
2017-11-16T11:45:23.189Z,38.50
2017-11-16T11:47:50.224Z,39.50
2017-11-16T11:50:16.523Z,35.23
2017-11-16T11:52:42.803Z,34.93
2017-11-16T11:55:09.827Z,39.97
2017-11-16T11:57:36.131Z,37.70
2017-11-16T12:00:02.404Z,33.17
2017-11-16T12:02:29.452Z,37.13
2017-11-16T12:04:56.568Z,34.13
2017-11-16T12:07:22.937Z,32.17
2017-11-16T12:09:49.960Z,32.23
2017-11-16T12:12:16.263Z,31.73
2017-11-16T12:14:42.532Z,32.50
2017-11-16T12:17:08.849Z,30.23
2017-11-16T12:19:35.229Z,42.93
2017-11-16T12:22:01.560Z,28.07
2017-11-16T12:24:27.894Z,25.57
2017-11-16T12:26:54.185Z,29.50
2017-11-16T12:29:20.560Z,29.00
2017-11-16T12:31:46.856Z,27.90
2017-11-16T12:34:13.895Z,30.47
2017-11-16T12:36:40.230Z,28.90
2017-11-16T12:39:06.625Z,29.40
2017-11-16T12:41:32.881Z,30.37
2017-11-16T12:43:59.211Z,31.77
2017-11-16T12:46:25.593Z,27.67
2017-11-16T12:48:51.987Z,34.37
2017-11-16T12:51:18.315Z,32.73
2017-11-16T12:53:44.653Z,32.43
2017-11-16T12:56:10.999Z,30.70
2017-11-16T12:58:38.111Z,33.60
2017-11-16T13:01:04.445Z,32.67
2017-11-16T13:03:30.706Z,32.60
2017-11-16T13:05:57.860Z,40.70
2017-11-16T13:08:24.158Z,37.77
2017-11-16T13:10:50.539Z,32.17
2017-11-16T13:13:16.832Z,37.73
2017-11-16T13:15:43.170Z,33.07
2017-11-16T13:18:09.486Z,36.40
2017-11-16T13:20:35.843Z,36.53
2017-11-16T13:23:02.154Z,34.90
2017-11-16T13:25:28.450Z,37.90
2017-11-16T13:27:54.785Z,35.80
2017-11-16T13:30:21.109Z,39.30
2017-11-16T13:32:47.421Z,35.10
2017-11-16T13:35:13.709Z,34.70
2017-11-16T13:37:40.028Z,33.83
2017-11-16T13:40:06.290Z,34.07
2017-11-16T13:42:33.289Z,34.30
2017-11-16T13:44:59.625Z,36.30
2017-11-16T13:47:26.013Z,35.60
2017-11-16T13:49:53.084Z,34.13
2017-11-16T13:52:19.331Z,37.27
2017-11-16T13:54:45.666Z,38.43
2017-11-16T13:57:12.086Z,35.70
2017-11-16T13:59:38.647Z,38.93
2017-11-16T14:02:05.066Z,37.40
2017-11-16T14:04:31.475Z,37.83
2017-11-16T14:06:57.866Z,37.70
2017-11-16T14:09:24.272Z,37.63
2017-11-16T14:11:50.595Z,44.00
2017-11-16T14:14:17.050Z,39.60
2017-11-16T14:16:43.395Z,46.10
2017-11-16T14:19:10.616Z,47.80
2017-11-16T14:21:37.223Z,41.10
2017-11-16T14:24:03.565Z,48.60
2017-11-16T14:26:29.928Z,41.00
2017-11-16T14:28:56.262Z,37.97
2017-11-16T14:31:22.725Z,32.53
2017-11-16T14:33:49.028Z,40.53
2017-11-16T14:36:15.350Z,37.90
2017-11-16T14:38:41.680Z,36.07
2017-11-16T14:41:08.981Z,40.37
2017-11-16T14:43:36.229Z,40.67
2017-11-16T14:46:03.353Z,44.30
2017-11-16T14:48:29.789Z,43.03
2017-11-16T14:50:56.066Z,45.80
2017-11-16T14:53:22.367Z,37.90
2017-11-16T14:55:49.508Z,34.67
2017-11-16T14:58:15.920Z,40.47
2017-11-16T15:00:42.309Z,36.20
2017-11-16T15:03:08.596Z,36.53
2017-11-16T15:05:34.886Z,36.20
2017-11-16T15:08:01.161Z,36.40
2017-11-16T15:10:27.470Z,40.10
2017-11-16T15:12:53.779Z,40.63
2017-11-16T15:15:20.124Z,42.00
2017-11-16T15:17:46.507Z,44.17
2017-11-16T15:20:13.610Z,45.50
2017-11-16T15:22:39.865Z,43.03
2017-11-16T15:25:06.206Z,38.13
2017-11-16T15:27:33.308Z,42.33
2017-11-16T15:29:59.614Z,34.33
2017-11-16T15:32:25.940Z,41.97
2017-11-16T15:34:52.307Z,35.13
2017-11-16T15:37:18.732Z,42.30
2017-11-16T15:39:46.240Z,38.53
2017-11-16T15:42:13.311Z,36.80
2017-11-16T15:44:39.605Z,36.67
2017-11-16T15:47:06.574Z,45.57
2017-11-16T15:49:33.686Z,39.80
2017-11-16T15:52:00.039Z,41.50
2017-11-16T15:54:26.363Z,41.23
2017-11-16T15:56:52.666Z,40.10
2017-11-16T15:59:19.003Z,36.87
2017-11-16T16:01:45.405Z,37.77
2017-11-16T16:04:11.886Z,39.40
2017-11-16T16:06:38.232Z,41.03
2017-11-16T16:09:04.515Z,37.10
2017-11-16T16:11:30.930Z,43.50
2017-11-16T16:13:57.223Z,35.43
2017-11-16T16:16:23.548Z,34.30
2017-11-16T16:18:51.349Z,36.20
2017-11-16T16:21:17.729Z,33.53
2017-11-16T16:23:44.056Z,31.53
2017-11-16T16:26:10.354Z,36.10
2017-11-16T16:28:36.654Z,37.07
2017-11-16T16:31:02.933Z,35.47
2017-11-16T16:33:29.287Z,36.77
2017-11-16T16:35:55.606Z,42.23
2017-11-16T16:38:21.924Z,38.37
2017-11-16T16:40:48.227Z,35.50
2017-11-16T16:43:14.528Z,36.97
2017-11-16T16:45:40.801Z,37.20
2017-11-16T16:48:07.136Z,35.67
2017-11-16T16:50:33.470Z,37.30
2017-11-16T16:52:59.791Z,39.10
2017-11-16T16:55:26.154Z,41.03
2017-11-16T16:57:52.577Z,37.40
2017-11-16T17:00:18.929Z,34.73
2017-11-16T17:02:45.247Z,40.40
2017-11-16T17:05:11.550Z,38.03
2017-11-16T17:07:37.920Z,34.80
2017-11-16T17:10:04.267Z,40.23
2017-11-16T17:12:30.633Z,41.67
2017-11-16T17:14:56.955Z,43.53
2017-11-16T17:17:24.003Z,37.77
2017-11-16T17:19:51.152Z,41.97
2017-11-16T17:22:18.156Z,45.47
2017-11-16T17:24:44.456Z,44.63
2017-11-16T17:27:10.797Z,37.43
2017-11-16T17:29:37.054Z,40.43
2017-11-16T17:32:03.383Z,41.00
2017-11-16T17:34:29.820Z,41.60
2017-11-16T17:36:56.116Z,40.30
2017-11-16T17:39:22.447Z,39.07
2017-11-16T17:41:48.756Z,39.03
2017-11-16T17:44:15.858Z,37.87
2017-11-16T17:46:42.157Z,42.73
2017-11-16T17:49:08.481Z,40.63
2017-11-16T17:51:35.070Z,46.30
2017-11-16T17:54:01.385Z,39.67
2017-11-16T17:56:27.690Z,37.93
2017-11-16T17:58:53.983Z,41.80
2017-11-16T18:01:21.041Z,40.13
2017-11-16T18:03:48.097Z,40.97
2017-11-16T18:06:14.409Z,40.63
2017-11-16T18:08:41.456Z,42.50
2017-11-16T18:11:07.752Z,42.63
2017-11-16T18:13:34.040Z,42.20
2017-11-16T18:16:00.319Z,42.07
2017-11-16T18:18:26.586Z,38.50
2017-11-16T18:20:53.618Z,40.70
2017-11-16T18:23:19.881Z,45.90
2017-11-16T18:25:46.196Z,44.50
2017-11-16T18:28:13.263Z,44.40
2017-11-16T18:30:39.694Z,38.63
2017-11-16T18:33:06.005Z,43.37
2017-11-16T18:35:33.066Z,44.03
2017-11-16T18:37:59.339Z,43.33
2017-11-16T18:40:25.598Z,53.63
2017-11-16T18:45:47.657Z,48.77
2017-11-16T18:48:13.941Z,45.80
2017-11-16T18:50:40.286Z,46.37
2017-11-16T18:53:07.310Z,47.97
2017-11-16T18:55:33.656Z,52.23
2017-11-16T18:57:59.992Z,48.40
2017-11-16T19:00:26.350Z,55.43
2017-11-16T19:02:52.843Z,52.70
2017-11-16T19:05:19.278Z,45.37
2017-11-16T19:07:45.570Z,62.00
2017-11-16T19:10:12.620Z,59.77
2017-11-16T19:12:38.928Z,47.90
2017-11-16T19:15:05.281Z,52.17
2017-11-16T19:17:32.388Z,51.40
2017-11-16T19:19:58.709Z,53.87
2017-11-16T19:22:24.983Z,49.97
2017-11-16T19:24:52.032Z,52.80
2017-11-16T19:27:20.132Z,55.47
2017-11-16T19:29:46.500Z,57.30
2017-11-16T19:32:12.847Z,49.97
2017-11-16T19:34:39.193Z,52.43
2017-11-16T19:37:05.519Z,54.47
2017-11-16T19:39:31.826Z,54.60
2017-11-16T19:41:58.140Z,49.90
2017-11-16T19:44:24.571Z,56.27
2017-11-16T19:46:50.946Z,57.20
2017-11-16T19:49:17.290Z,56.50
2017-11-16T19:51:44.423Z,51.20
2017-11-16T19:54:10.728Z,53.67
2017-11-16T19:56:37.046Z,57.17
2017-11-16T19:59:03.407Z,56.57
2017-11-16T20:01:29.773Z,56.53
2017-11-16T20:03:57.134Z,59.00
2017-11-16T20:06:24.249Z,57.23
2017-11-16T20:08:50.720Z,62.43
2017-11-16T20:11:17.770Z,61.60
2017-11-16T20:13:45.001Z,63.63
2017-11-16T20:16:12.059Z,55.40
2017-11-16T20:18:40.931Z,64.10
2017-11-16T20:21:07.765Z,65.57
2017-11-16T20:23:34.669Z,67.53
2017-11-16T20:26:02.186Z,58.47
2017-11-16T20:28:29.864Z,64.50
2017-11-16T20:30:57.520Z,62.97
2017-11-16T20:33:25.097Z,51.87
2017-11-16T20:35:53.725Z,65.00
2017-11-16T20:38:21.368Z,55.33
2017-11-16T20:40:57.671Z,46.20
2017-11-16T20:46:31.191Z,49.07
2017-11-16T20:49:01.692Z,47.27
2017-11-16T20:51:34.767Z,50.47
2017-11-16T20:54:04.562Z,47.13
2017-11-16T20:56:31.722Z,48.30
2017-11-16T20:58:58.673Z,51.97
2017-11-16T21:01:25.289Z,55.83
2017-11-16T21:03:54.095Z,51.70
2017-11-16T21:06:20.928Z,49.67
2017-11-16T21:08:47.717Z,46.57
2017-11-16T21:13:48.876Z,51.07
2017-11-16T21:16:15.205Z,54.13
2017-11-16T21:18:41.942Z,55.73
2017-11-16T21:21:10.229Z,57.40
2017-11-16T21:23:39.128Z,51.57
2017-11-16T21:26:06.050Z,49.37
2017-11-16T21:28:33.400Z,52.60
2017-11-16T21:31:00.106Z,46.70
2017-11-16T21:33:28.190Z,54.53
2017-11-16T21:35:56.430Z,51.40
2017-11-16T21:38:24.299Z,46.37
2017-11-16T21:40:52.210Z,49.33
2017-11-16T21:43:19.240Z,52.40
2017-11-16T21:45:46.450Z,48.00
2017-11-16T21:48:17.892Z,46.73
2017-11-16T21:50:44.574Z,45.93
2017-11-16T21:55:45.483Z,40.83
2017-11-16T22:01:21.830Z,49.37
2017-11-16T22:03:48.165Z,47.57
2017-11-16T22:06:14.421Z,47.10
2017-11-16T22:11:23.837Z,44.37
2017-11-16T22:13:50.817Z,50.83
2017-11-16T22:16:17.513Z,42.97
2017-11-16T22:18:44.885Z,46.93
2017-11-16T22:21:11.514Z,44.47
2017-11-16T22:23:38.682Z,57.03
2017-11-16T22:26:05.788Z,47.60
2017-11-16T22:28:32.933Z,46.23
2017-11-16T22:30:59.904Z,49.13
2017-11-16T22:33:27.526Z,49.60
2017-11-16T22:35:54.515Z,50.07
2017-11-16T22:38:22.129Z,48.40
2017-11-16T22:40:50.417Z,49.93
2017-11-16T22:43:17.504Z,54.83
2017-11-16T22:45:44.068Z,48.17
2017-11-16T22:48:11.248Z,48.40
2017-11-16T22:50:38.287Z,47.93
2017-11-16T22:53:04.562Z,56.90
2017-11-16T22:55:30.891Z,45.00
2017-11-16T22:57:58.654Z,50.30
2017-11-16T23:00:26.331Z,52.83
2017-11-16T23:02:53.383Z,48.00
2017-11-16T23:05:20.868Z,56.03
2017-11-16T23:07:51.193Z,49.17
2017-11-16T23:10:18.065Z,59.30
2017-11-16T23:12:46.217Z,52.23
2017-11-16T23:15:13.297Z,45.13
2017-11-16T23:17:40.996Z,52.37
2017-11-16T23:20:08.768Z,47.10
2017-11-16T23:22:36.615Z,47.60
2017-11-16T23:25:02.883Z,54.33
2017-11-16T23:27:29.181Z,50.40
2017-11-16T23:29:56.191Z,52.40
2017-11-16T23:32:22.511Z,46.90
2017-11-16T23:34:48.770Z,47.63
2017-11-16T23:37:15.809Z,47.60
2017-11-16T23:39:42.144Z,52.23
2017-11-16T23:42:08.409Z,50.57
2017-11-16T23:44:34.716Z,47.43
2017-11-16T23:47:01.022Z,48.47
2017-11-16T23:49:27.341Z,45.93
2017-11-16T23:51:53.672Z,50.50
2017-11-16T23:54:19.955Z,48.40
2017-11-16T23:56:46.268Z,50.93
2017-11-16T23:59:12.554Z,51.57
